Time;durP1;ratioP1;P1;durP2;ratioP2;P2;SDS_P1;SDS_P2;PMS_P1;PMS_P2;Temp;Humidity;BMP_temperature;BMP_pressure;BME280_temperature;BME280_humidity;BME280_pressure;Samples;Min_cycle;Max_cycle;Signal;HPM_P1;HPM_P2
2020/12/17 00:01:31;;;;;;;2.77;2.30;;;22.10;48.70;;;;;;1482334;95;21579;-32
2020/12/17 00:03:58;;;;;;;2.25;1.90;;;22.10;48.70;;;;;;1464340;95;21659;-33
2020/12/17 00:06:26;;;;;;;3.00;2.12;;;22.10;48.70;;;;;;1481482;94;21231;-33
2020/12/17 00:08:54;;;;;;;2.87;2.55;;;22.10;48.80;;;;;;1452503;94;21498;-33
2020/12/17 00:11:21;;;;;;;2.15;1.87;;;22.10;48.80;;;;;;1481573;94;21191;-36
2020/12/17 00:13:49;;;;;;;2.27;1.87;;;22.10;48.80;;;;;;1481406;94;21379;-36
2020/12/17 00:16:21;;;;;;;2.47;1.90;;;22.00;48.80;;;;;;1481324;94;21703;-36
2020/12/17 00:18:48;;;;;;;2.05;1.80;;;22.10;48.80;;;;;;1482210;95;21212;-33
2020/12/17 00:21:20;;;;;;;3.10;1.98;;;22.00;48.80;;;;;;1482958;94;21193;-31
2020/12/17 00:23:48;;;;;;;3.00;2.27;;;22.00;48.80;;;;;;1480032;95;21247;-30
2020/12/17 00:26:16;;;;;;;2.42;2.02;;;22.00;48.80;;;;;;1479735;94;21192;-32
2020/12/17 00:28:44;;;;;;;2.25;2.05;;;22.00;48.80;;;;;;1450047;95;21212;-37
2020/12/17 00:31:11;;;;;;;2.12;1.92;;;22.00;48.80;;;;;;1481708;94;21172;-35
2020/12/17 00:33:40;;;;;;;3.95;2.10;;;22.00;48.80;;;;;;1480071;95;21215;-31
2020/12/17 00:36:08;;;;;;;2.58;2.17;;;22.00;48.90;;;;;;1449641;95;21239;-35
2020/12/17 00:38:36;;;;;;;2.95;2.35;;;22.00;48.90;;;;;;1481574;95;22995;-32
2020/12/17 00:41:03;;;;;;;3.15;1.92;;;21.90;48.90;;;;;;1464414;95;21641;-30
2020/12/17 00:43:31;;;;;;;2.50;2.12;;;22.00;48.90;;;;;;1481962;94;21359;-35
2020/12/17 00:45:59;;;;;;;3.15;2.12;;;21.90;48.90;;;;;;1482896;95;21312;-34
2020/12/17 00:48:26;;;;;;;2.62;2.12;;;21.90;48.90;;;;;;1480040;94;21196;-30
2020/12/17 00:50:54;;;;;;;3.20;2.00;;;22.00;48.70;;;;;;1463280;95;21714;-31
2020/12/17 00:53:22;;;;;;;2.47;2.00;;;21.90;48.90;;;;;;1480979;94;21275;-32
2020/12/17 00:55:49;;;;;;;3.47;2.08;;;21.90;49.00;;;;;;1467242;95;22051;-32
2020/12/17 00:58:17;;;;;;;2.77;1.72;;;21.90;49.00;;;;;;1487887;93;21255;-32
2020/12/17 01:00:45;;;;;;;4.65;2.10;;;21.90;49.00;;;;;;1464947;95;21207;-31
2020/12/17 01:03:12;;;;;;;2.50;1.95;;;21.90;49.00;;;;;;1479449;95;21278;-32
2020/12/17 01:05:40;;;;;;;2.05;1.80;;;21.90;49.10;;;;;;1482631;95;21375;-31
2020/12/17 01:08:08;;;;;;;2.33;1.82;;;21.90;49.00;;;;;;1463334;95;21380;-31
2020/12/17 01:10:36;;;;;;;4.12;2.10;;;21.90;49.10;;;;;;1482029;95;21557;-38
2020/12/17 01:13:03;;;;;;;1.95;1.62;;;21.90;49.10;;;;;;1480710;94;21183;-30
2020/12/17 01:15:31;;;;;;;1.87;1.77;;;21.90;49.10;;;;;;1448605;95;21731;-33
2020/12/17 01:17:59;;;;;;;1.87;1.67;;;21.90;49.10;;;;;;1478529;95;21200;-34
2020/12/17 01:20:27;;;;;;;2.62;2.00;;;21.90;49.10;;;;;;1461785;95;21199;-30
2020/12/17 01:22:54;;;;;;;3.20;2.05;;;21.90;49.10;;;;;;1466296;95;21749;-34
2020/12/17 01:25:22;;;;;;;5.90;1.87;;;21.80;49.10;;;;;;1480481;95;21286;-35
2020/12/17 01:27:50;;;;;;;2.67;2.05;;;21.80;49.10;;;;;;1464064;95;21831;-35
2020/12/17 01:30:18;;;;;;;4.08;2.30;;;21.90;49.30;;;;;;1480372;95;21286;-32
2020/12/17 01:32:45;;;;;;;2.22;1.87;;;21.80;49.20;;;;;;1479690;95;21734;-30
2020/12/17 01:35:13;;;;;;;2.22;1.92;;;21.80;49.30;;;;;;1464023;95;21362;-34
2020/12/17 01:37:41;;;;;;;2.52;1.95;;;21.80;49.30;;;;;;1481857;94;21283;-30
2020/12/17 01:40:08;;;;;;;2.22;1.80;;;21.80;49.40;;;;;;1464383;95;21714;-29
2020/12/17 01:42:36;;;;;;;2.58;1.82;;;21.80;49.30;;;;;;1464080;95;21345;-33
2020/12/17 01:45:05;;;;;;;2.15;1.90;;;21.80;49.40;;;;;;1479996;95;21377;-33
2020/12/17 01:47:40;;;;;;;2.17;1.60;;;21.80;49.40;;;;;;1448514;95;21223;-28
2020/12/17 01:50:08;;;;;;;3.58;1.80;;;21.80;49.40;;;;;;1473194;95;66846;-33
2020/12/17 01:52:36;;;;;;;2.00;1.80;;;21.80;49.40;;;;;;1468128;94;21148;-34
2020/12/17 01:55:04;;;;;;;2.30;1.87;;;21.80;49.50;;;;;;1468523;94;21869;-30
2020/12/17 01:57:35;;;;;;;2.77;2.05;;;21.80;49.50;;;;;;1485120;94;21913;-30
2020/12/17 02:00:08;;;;;;;2.35;1.95;;;21.80;49.50;;;;;;1465279;95;21187;-35
2020/12/17 02:02:38;;;;;;;2.85;2.02;;;21.70;49.60;;;;;;1486232;93;21208;-31
2020/12/17 02:05:07;;;;;;;2.15;1.75;;;21.80;49.60;;;;;;1486538;93;21407;-33
2020/12/17 02:07:35;;;;;;;2.37;1.65;;;21.80;49.60;;;;;;1469129;94;21668;-35
2020/12/17 02:10:03;;;;;;;4.40;1.72;;;21.70;49.60;;;;;;1468246;94;21258;-33
2020/12/17 02:12:45;;;;;;;4.53;1.82;;;21.80;49.70;;;;;;1470069;94;22005;-32
2020/12/17 02:15:13;;;;;;;2.12;1.77;;;21.80;49.70;;;;;;1467641;95;21624;-36
2020/12/17 02:17:41;;;;;;;1.80;1.60;;;21.70;49.60;;;;;;1484422;94;21379;-31
2020/12/17 02:20:10;;;;;;;2.50;1.80;;;21.80;49.70;;;;;;1485990;94;21212;-33
2020/12/17 02:22:39;;;;;;;3.67;1.87;;;21.80;49.70;;;;;;1485255;94;22845;-33
2020/12/17 02:25:11;;;;;;;2.02;1.50;;;21.80;49.80;;;;;;1483879;94;21392;-32
2020/12/17 02:27:40;;;;;;;3.30;1.77;;;21.70;49.70;;;;;;1468339;94;21222;-30
2020/12/17 02:30:10;;;;;;;3.55;1.87;;;21.70;49.70;;;;;;1480319;94;21229;-34
2020/12/17 02:32:39;;;;;;;1.70;1.60;;;21.70;49.80;;;;;;1466273;94;21698;-32
2020/12/17 02:35:09;;;;;;;2.30;1.60;;;21.80;50.00;;;;;;1470298;95;21253;-30
2020/12/17 02:37:37;;;;;;;2.40;1.80;;;21.70;50.00;;;;;;1484796;94;21221;-32
2020/12/17 02:40:06;;;;;;;2.25;1.90;;;21.70;50.50;;;;;;1468308;95;21356;-30
2020/12/17 02:42:34;;;;;;;1.67;1.57;;;21.70;50.00;;;;;;1484554;94;21240;-32
2020/12/17 02:45:01;;;;;;;2.65;1.82;;;21.70;50.00;;;;;;1483163;94;21308;-34
2020/12/17 02:47:29;;;;;;;2.65;1.92;;;21.70;50.20;;;;;;1465540;95;21513;-30
2020/12/17 02:49:57;;;;;;;2.50;1.95;;;21.80;50.00;;;;;;1478567;93;21250;-32
2020/12/17 02:52:25;;;;;;;4.17;1.70;;;21.70;49.90;;;;;;1474877;93;21717;-31
2020/12/17 02:54:52;;;;;;;2.33;1.80;;;21.80;49.90;;;;;;1484637;94;21244;-33
2020/12/17 02:57:20;;;;;;;2.30;1.72;;;21.70;49.80;;;;;;1485561;94;21702;-34
2020/12/17 02:59:48;;;;;;;2.40;2.00;;;21.80;50.00;;;;;;1479124;94;21379;-36
2020/12/17 03:02:15;;;;;;;2.85;1.95;;;21.80;50.00;;;;;;1479675;94;21365;-32
2020/12/17 03:04:43;;;;;;;2.12;1.72;;;21.80;50.00;;;;;;1480628;94;21676;-31
2020/12/17 03:07:10;;;;;;;2.40;1.80;;;21.80;50.00;;;;;;1450950;95;21307;-34
2020/12/17 03:09:38;;;;;;;2.77;1.92;;;21.80;50.00;;;;;;1476235;94;21300;-33
2020/12/17 03:12:06;;;;;;;1.92;1.47;;;21.80;50.00;;;;;;1467256;93;21947;-31
2020/12/17 03:14:33;;;;;;;2.08;1.62;;;21.80;50.00;;;;;;1484068;94;21437;-33
2020/12/17 03:17:01;;;;;;;3.00;1.77;;;21.80;50.00;;;;;;1483085;93;21360;-33
2020/12/17 03:19:29;;;;;;;3.35;1.60;;;21.80;50.00;;;;;;1489839;93;21323;-33
2020/12/17 03:21:56;;;;;;;2.65;1.67;;;21.90;50.10;;;;;;1484044;94;21695;-30
2020/12/17 03:24:24;;;;;;;2.80;1.90;;;21.90;50.00;;;;;;1481336;94;21227;-34
2020/12/17 03:26:52;;;;;;;3.90;1.75;;;21.90;50.00;;;;;;1483455;94;21731;-32
2020/12/17 03:29:19;;;;;;;2.27;1.57;;;21.90;50.00;;;;;;1481648;94;21292;-30
2020/12/17 03:31:47;;;;;;;2.27;1.62;;;21.90;50.00;;;;;;1467453;94;21280;-32
2020/12/17 03:34:15;;;;;;;2.10;1.77;;;21.90;50.00;;;;;;1458729;94;21305;-30
2020/12/17 03:36:42;;;;;;;1.75;1.50;;;21.90;50.00;;;;;;1457654;96;21153;-31
2020/12/17 03:39:10;;;;;;;2.95;1.80;;;21.90;50.30;;;;;;1448943;95;21303;-30
2020/12/17 03:41:38;;;;;;;2.62;1.62;;;21.90;49.90;;;;;;1482660;95;21205;-34
2020/12/17 03:44:05;;;;;;;1.92;1.50;;;21.90;49.90;;;;;;1465992;95;21459;-31
2020/12/17 03:46:33;;;;;;;2.17;1.77;;;21.90;49.90;;;;;;1467009;94;21220;-34
2020/12/17 03:49:02;;;;;;;2.58;1.67;;;21.90;49.80;;;;;;1481534;94;21933;-33
2020/12/17 03:51:30;;;;;;;1.77;1.67;;;22.00;49.90;;;;;;1463276;95;21612;-33
2020/12/17 03:53:58;;;;;;;2.75;1.72;;;22.00;49.90;;;;;;1483661;94;21232;-30
2020/12/17 03:56:26;;;;;;;1.37;1.27;;;22.00;49.90;;;;;;1481784;94;21384;-31
2020/12/17 03:58:53;;;;;;;2.15;1.60;;;22.00;50.00;;;;;;1466827;94;21297;-31
2020/12/17 04:01:21;;;;;;;2.33;1.52;;;22.00;49.90;;;;;;1479339;94;21368;-32
2020/12/17 04:03:49;;;;;;;6.40;1.65;;;22.00;49.90;;;;;;1490736;94;21888;-30
2020/12/17 04:06:17;;;;;;;1.67;1.50;;;22.00;49.90;;;;;;1466895;95;21231;-31
2020/12/17 04:08:44;;;;;;;1.80;1.60;;;22.00;50.00;;;;;;1481017;94;21913;-34
2020/12/17 04:11:12;;;;;;;1.60;1.50;;;22.00;49.90;;;;;;1475558;95;21181;-30
2020/12/17 04:13:40;;;;;;;2.62;1.70;;;22.00;49.90;;;;;;1482243;94;21165;-31
2020/12/17 04:16:08;;;;;;;2.55;1.98;;;22.00;50.30;;;;;;1482755;94;21769;-31
2020/12/17 04:18:35;;;;;;;1.65;1.20;;;22.00;49.90;;;;;;1487585;94;21292;-34
2020/12/17 04:21:03;;;;;;;1.47;1.37;;;22.00;49.90;;;;;;1480317;95;21739;-31
2020/12/17 04:23:31;;;;;;;1.67;1.50;;;22.00;49.90;;;;;;1495496;93;21196;-33
2020/12/17 04:25:59;;;;;;;3.30;2.00;;;21.90;49.80;;;;;;1446298;94;21707;-36
2020/12/17 04:28:27;;;;;;;1.90;1.60;;;22.00;49.90;;;;;;1482183;94;22193;-31
2020/12/17 04:30:56;;;;;;;2.15;1.60;;;22.00;49.90;;;;;;1460880;93;21728;-31
2020/12/17 04:33:23;;;;;;;2.25;1.77;;;21.90;49.80;;;;;;1483466;94;21799;-35
2020/12/17 04:35:51;;;;;;;2.25;1.45;;;21.90;49.80;;;;;;1465978;95;21714;-32
2020/12/17 04:38:19;;;;;;;1.82;1.30;;;21.90;49.80;;;;;;1452663;94;21311;-36
2020/12/17 04:40:46;;;;;;;2.08;1.65;;;21.90;49.80;;;;;;1486051;93;21307;-34
2020/12/17 04:43:14;;;;;;;2.25;1.60;;;21.90;49.80;;;;;;1491217;93;21212;-37
2020/12/17 04:45:42;;;;;;;2.15;1.57;;;22.00;49.90;;;;;;1471515;95;22353;-33
2020/12/17 04:48:12;;;;;;;2.58;1.70;;;21.90;49.80;;;;;;1483629;94;21319;-31
2020/12/17 04:50:41;;;;;;;2.27;1.60;;;21.90;49.80;;;;;;1468439;94;21330;-31
2020/12/17 04:53:11;;;;;;;2.70;1.80;;;22.00;49.80;;;;;;1466779;94;21227;-34
2020/12/17 04:55:41;;;;;;;2.15;1.62;;;21.90;49.80;;;;;;1482228;94;21267;-34
2020/12/17 04:58:11;;;;;;;3.20;1.50;;;21.90;49.80;;;;;;1448713;95;22721;-33
2020/12/17 05:00:42;;;;;;;1.45;1.35;;;21.90;49.70;;;;;;1483347;94;21605;-29
2020/12/17 05:03:16;;;;;;;2.70;1.47;;;22.00;49.80;;;;;;1483394;94;21747;-37
2020/12/17 05:05:43;;;;;;;1.95;1.50;;;21.90;49.70;;;;;;1466759;94;21687;-31
2020/12/17 05:08:11;;;;;;;2.75;1.60;;;21.90;49.80;;;;;;1483743;94;21232;-30
2020/12/17 05:10:39;;;;;;;1.35;1.30;;;22.00;49.80;;;;;;1465552;94;21592;-32
2020/12/17 05:13:06;;;;;;;1.50;1.40;;;21.90;49.70;;;;;;1484775;94;21362;-33
2020/12/17 05:15:35;;;;;;;1.70;1.40;;;22.00;50.20;;;;;;1484303;93;22626;-30
2020/12/17 05:18:07;;;;;;;1.60;1.50;;;22.00;49.80;;;;;;1466987;95;21208;-31
2020/12/17 05:20:36;;;;;;;1.45;1.35;;;22.00;49.80;;;;;;1482242;94;21291;-35
2020/12/17 05:23:05;;;;;;;1.30;1.20;;;22.00;49.80;;;;;;1479551;93;21291;-33
2020/12/17 05:25:33;;;;;;;1.87;1.65;;;22.00;49.80;;;;;;1479590;94;21323;-33
2020/12/17 05:28:02;;;;;;;1.65;1.27;;;22.00;49.80;;;;;;1482090;94;21453;-32
2020/12/17 05:30:36;;;;;;;1.82;1.60;;;22.00;49.70;;;;;;1467649;95;21874;-32
2020/12/17 05:33:04;;;;;;;1.98;1.47;;;22.00;49.80;;;;;;1483592;94;21315;-33
2020/12/17 05:35:36;;;;;;;1.72;1.45;;;22.00;49.80;;;;;;1467173;94;21274;-33
2020/12/17 05:38:09;;;;;;;2.42;1.37;;;22.00;49.70;;;;;;1487286;94;21531;-34
2020/12/17 05:40:43;;;;;;;1.57;1.37;;;22.00;49.70;;;;;;1486113;94;21683;-32
2020/12/17 05:43:11;;;;;;;1.80;1.35;;;22.00;49.70;;;;;;1467184;94;21177;-34
2020/12/17 05:45:39;;;;;;;2.65;1.40;;;22.00;49.70;;;;;;1484408;94;21777;-32
2020/12/17 05:48:18;;;;;;;1.40;1.30;;;22.00;49.70;;;;;;1484395;94;21358;-35
2020/12/17 05:50:54;;;;;;;1.90;1.32;;;22.00;49.80;;;;;;1484242;94;21228;-30
2020/12/17 05:53:23;;;;;;;1.57;1.47;;;22.00;49.70;;;;;;1483006;94;21220;-33
2020/12/17 05:56:03;;;;;;;6.10;1.90;;;22.00;49.80;;;;;;1483359;94;21483;-31
2020/12/17 05:58:42;;;;;;;8.75;2.83;;;22.00;49.90;;;;;;1483340;94;21232;-38
2020/12/17 06:01:15;;;;;;;6.62;3.20;;;22.00;50.20;;;;;;1459964;95;21299;-36
2020/12/17 06:03:44;;;;;;;12.63;3.10;;;22.00;50.10;;;;;;1468036;95;21192;-35
2020/12/17 06:06:12;;;;;;;8.95;3.00;;;22.00;50.10;;;;;;1485857;94;21145;-35
2020/12/17 06:08:42;;;;;;;6.22;2.87;;;22.00;50.10;;;;;;1483746;94;21216;-33
2020/12/17 06:11:17;;;;;;;8.68;2.85;;;22.00;50.10;;;;;;1482860;94;21235;-31
2020/12/17 06:13:43;;;;;;;10.58;3.72;;;22.00;50.10;;;;;;1482916;94;21319;-30
2020/12/17 06:16:12;;;;;;;8.58;2.62;;;22.00;50.10;;;;;;1463736;95;21738;-34
2020/12/17 06:18:42;;;;;;;12.70;2.92;;;22.00;50.10;;;;;;1485919;94;21593;-31
2020/12/17 06:21:11;;;;;;;6.78;2.62;;;22.00;50.10;;;;;;1482353;94;21278;-36
2020/12/17 06:23:39;;;;;;;8.65;2.60;;;22.00;50.10;;;;;;1449036;94;21204;-33
2020/12/17 06:26:11;;;;;;;8.60;2.70;;;22.00;50.10;;;;;;1483316;94;21318;-31
2020/12/17 06:28:47;;;;;;;7.62;2.72;;;22.00;50.60;;;;;;1483441;94;21189;-31
2020/12/17 06:31:19;;;;;;;7.30;2.65;;;22.00;50.10;;;;;;1485724;94;21244;-33
2020/12/17 06:33:47;;;;;;;9.20;3.15;;;22.00;50.10;;;;;;1488587;94;21236;-36
2020/12/17 06:36:33;;;;;;;6.10;2.27;;;22.00;50.10;;;;;;1470644;95;21675;-31
2020/12/17 06:39:06;;;;;;;8.60;2.77;;;22.00;50.00;;;;;;1462240;96;67601;-34
2020/12/17 06:41:34;;;;;;;6.37;2.47;;;22.00;50.00;;;;;;1464752;95;21161;-31
2020/12/17 06:44:03;;;;;;;5.15;2.72;;;22.00;50.00;;;;;;1435299;96;21168;-34
2020/12/17 06:46:36;;;;;;;4.53;2.35;;;22.00;50.00;;;;;;1457105;96;22971;-33
2020/12/17 06:49:07;;;;;;;7.10;2.15;;;22.00;50.00;;;;;;1446404;96;21260;-35
2020/12/17 06:51:39;;;;;;;5.45;2.15;;;22.00;50.00;;;;;;1475416;95;21188;-32
2020/12/17 06:54:18;;;;;;;7.90;2.25;;;22.00;50.00;;;;;;1466914;94;21551;-33
2020/12/17 06:57:05;;;;;;;8.60;2.30;;;22.00;50.00;;;;;;1451277;95;67161;-31
2020/12/17 06:59:34;;;;;;;5.20;2.20;;;22.00;50.00;;;;;;1474463;95;67811;-38
2020/12/17 07:02:01;;;;;;;5.80;2.10;;;22.00;50.00;;;;;;1465190;95;21239;-36
2020/12/17 07:04:43;;;;;;;4.90;2.35;;;22.00;50.00;;;;;;1491288;95;21633;-33
2020/12/17 07:07:21;;;;;;;6.25;2.33;;;22.00;49.90;;;;;;1487625;95;21682;-31
2020/12/17 07:09:51;;;;;;;3.65;2.00;;;22.00;49.90;;;;;;1482811;93;21231;-34
2020/12/17 07:12:40;;;;;;;3.98;2.20;;;22.00;49.90;;;;;;1479441;94;21196;-40
2020/12/17 07:15:13;;;;;;;5.35;2.52;;;22.00;49.90;;;;;;1430787;92;67635;-35
2020/12/17 07:17:41;;;;;;;4.90;2.20;;;22.00;49.90;;;;;;1427924;97;21219;-36
2020/12/17 07:20:09;;;;;;;4.00;1.95;;;22.00;49.90;;;;;;1442482;97;22632;-34
2020/12/17 07:22:39;;;;;;;5.17;2.47;;;22.00;49.90;;;;;;1426522;98;21235;-33
2020/12/17 07:25:07;;;;;;;2.77;2.00;;;22.00;49.90;;;;;;1440396;97;21753;-37
2020/12/17 07:27:35;;;;;;;2.87;1.90;;;22.00;49.90;;;;;;1429013;97;21240;-33
2020/12/17 07:30:10;;;;;;;3.33;1.72;;;22.00;49.90;;;;;;1442059;97;21543;-36
2020/12/17 07:32:39;;;;;;;3.55;1.95;;;22.00;49.90;;;;;;1443129;97;21223;-37
2020/12/17 07:35:10;;;;;;;4.72;1.70;;;22.00;49.90;;;;;;1427924;97;22120;-34
2020/12/17 07:38:00;;;;;;;4.58;1.70;;;22.00;49.90;;;;;;1444632;97;21323;-33
2020/12/17 07:40:43;;;;;;;2.58;1.70;;;22.00;49.90;;;;;;1478344;91;67379;-36
2020/12/17 07:43:15;;;;;;;4.12;1.80;;;22.00;49.90;;;;;;1475977;95;21715;-32
2020/12/17 07:45:51;;;;;;;2.90;1.80;;;22.00;49.90;;;;;;1459671;95;21212;-38
2020/12/17 07:48:39;;;;;;;3.52;2.10;;;22.00;49.90;;;;;;1460743;95;21766;-38
2020/12/17 07:51:09;;;;;;;2.70;1.95;;;22.00;49.90;;;;;;1470107;95;67529;-35
2020/12/17 07:53:38;;;;;;;3.85;2.00;;;22.00;49.90;;;;;;1446831;97;21152;-31
2020/12/17 07:56:06;;;;;;;5.12;2.10;;;22.00;49.90;;;;;;1460910;96;21204;-31
2020/12/17 07:58:35;;;;;;;6.40;2.17;;;22.00;49.90;;;;;;1463851;96;21290;-34
2020/12/17 08:01:05;;;;;;;27.52;2.12;;;22.00;49.90;;;;;;1466492;95;21819;-36
2020/12/17 08:03:43;;;;;;;2.75;1.90;;;22.00;49.80;;;;;;1468931;96;21324;-33
2020/12/17 08:06:13;;;;;;;3.25;2.00;;;22.00;49.80;;;;;;1463039;95;21267;-34
2020/12/17 08:08:41;;;;;;;5.42;2.30;;;22.00;49.80;;;;;;1468384;95;21287;-30
2020/12/17 08:11:11;;;;;;;2.98;1.80;;;22.00;49.80;;;;;;1466737;95;21235;-35
2020/12/17 08:13:39;;;;;;;4.45;1.90;;;22.00;49.80;;;;;;1449702;95;21224;-30
2020/12/17 08:16:08;;;;;;;2.15;1.87;;;22.00;49.80;;;;;;1446274;96;21335;-30
2020/12/17 08:18:39;;;;;;;2.60;1.92;;;22.00;49.80;;;;;;1458991;95;21283;-33
2020/12/17 08:21:11;;;;;;;2.98;1.90;;;22.00;49.80;;;;;;1441946;96;21527;-31
2020/12/17 08:23:40;;;;;;;2.98;1.55;;;22.00;49.80;;;;;;1458719;95;21267;-34
2020/12/17 08:26:14;;;;;;;3.92;1.92;;;22.00;49.80;;;;;;1465472;95;21359;-32
2020/12/17 08:28:42;;;;;;;4.12;1.87;;;22.00;49.80;;;;;;1460009;95;21276;-36
2020/12/17 08:31:15;;;;;;;3.08;2.20;;;22.00;50.30;;;;;;1462733;95;21313;-32
2020/12/17 08:33:56;;;;;;;3.30;1.52;;;22.00;49.80;;;;;;1454910;95;21185;-31
2020/12/17 08:36:23;;;;;;;3.62;1.80;;;22.00;49.80;;;;;;1447354;96;21232;-34
2020/12/17 08:39:04;;;;;;;2.55;2.08;;;22.00;49.80;;;;;;1464077;95;21199;-31
2020/12/17 08:41:38;;;;;;;4.58;1.87;;;22.00;49.80;;;;;;1455233;96;67342;-33
2020/12/17 08:44:10;;;;;;;2.67;1.92;;;22.00;50.20;;;;;;1449494;95;21224;-31
2020/12/17 08:46:40;;;;;;;3.40;2.08;;;22.00;49.90;;;;;;1445310;96;21291;-37
2020/12/17 08:49:11;;;;;;;3.02;1.90;;;22.00;49.90;;;;;;1448183;96;21342;-36
2020/12/17 08:51:39;;;;;;;3.50;1.87;;;22.00;49.90;;;;;;1461733;96;21223;-31
2020/12/17 08:54:07;;;;;;;2.27;1.67;;;22.00;49.90;;;;;;1442566;96;21240;-31
2020/12/17 08:56:35;;;;;;;5.60;2.17;;;22.00;50.00;;;;;;1461792;94;21249;-31
2020/12/17 08:59:05;;;;;;;2.10;1.80;;;22.00;50.00;;;;;;1462369;96;21803;-31
2020/12/17 09:01:35;;;;;;;3.35;1.92;;;22.00;50.00;;;;;;1454126;95;21231;-32
2020/12/17 09:04:09;;;;;;;2.25;1.80;;;22.00;50.00;;;;;;1482399;94;21206;-31
2020/12/17 09:06:38;;;;;;;3.52;2.27;;;22.00;50.10;;;;;;1483078;94;21478;-37
2020/12/17 09:09:16;;;;;;;1.65;1.50;;;22.00;50.00;;;;;;1480275;94;21813;-38
2020/12/17 09:11:47;;;;;;;1.85;1.45;;;22.00;50.00;;;;;;1468889;94;21219;-31
2020/12/17 09:14:22;;;;;;;2.67;1.90;;;22.10;50.00;;;;;;1465323;95;21212;-38
2020/12/17 09:16:50;;;;;;;5.12;2.10;;;22.10;49.90;;;;;;1473985;95;21242;-37
2020/12/17 09:19:17;;;;;;;2.15;1.95;;;22.10;49.80;;;;;;1480430;95;21200;-34
2020/12/17 09:22:00;;;;;;;3.20;1.70;;;22.20;50.40;;;;;;1452546;95;21758;-30
2020/12/17 09:24:29;;;;;;;3.27;2.00;;;22.20;49.90;;;;;;1482813;94;21304;-33
2020/12/17 09:26:58;;;;;;;6.03;1.62;;;22.20;49.90;;;;;;1468812;94;21218;-32
2020/12/17 09:29:25;;;;;;;2.87;1.80;;;22.20;50.40;;;;;;1473909;94;22726;-31
2020/12/17 09:31:53;;;;;;;4.60;1.92;;;22.30;50.20;;;;;;1492687;94;21420;-32
2020/12/17 09:34:23;;;;;;;4.33;2.00;;;22.30;50.20;;;;;;1483634;94;22370;-32
2020/12/17 09:36:58;;;;;;;3.47;1.80;;;22.40;50.10;;;;;;1484051;95;21235;-32
2020/12/17 09:39:26;;;;;;;2.52;2.02;;;22.40;50.00;;;;;;1483127;94;21815;-32
2020/12/17 09:41:56;;;;;;;4.67;1.80;;;22.50;49.90;;;;;;1448095;95;21181;-29
2020/12/17 09:44:28;;;;;;;3.62;1.72;;;22.50;49.80;;;;;;1474471;94;21660;-34
2020/12/17 09:46:57;;;;;;;2.75;1.50;;;22.50;49.80;;;;;;1473564;94;21344;-31
2020/12/17 09:49:30;;;;;;;3.17;2.00;;;22.60;50.00;;;;;;1484759;94;21299;-31
2020/12/17 09:51:59;;;;;;;2.42;1.47;;;22.60;49.90;;;;;;1482790;94;21613;-31
2020/12/17 09:54:27;;;;;;;3.58;1.77;;;22.60;49.60;;;;;;1446819;94;21849;-30
2020/12/17 09:57:10;;;;;;;2.52;1.77;;;22.70;49.60;;;;;;1483002;95;21239;-30
2020/12/17 09:59:40;;;;;;;2.42;1.85;;;22.70;49.40;;;;;;1475271;94;67190;-37
2020/12/17 10:02:10;;;;;;;5.08;1.80;;;22.70;49.30;;;;;;1442118;94;21550;-31
2020/12/17 10:04:39;;;;;;;3.00;1.85;;;22.70;49.30;;;;;;1484509;93;21650;-39
2020/12/17 10:07:10;;;;;;;4.50;1.90;;;22.80;49.30;;;;;;1469404;94;21173;-35
2020/12/17 10:09:38;;;;;;;6.87;2.10;;;22.80;49.50;;;;;;1486903;93;21274;-35
2020/12/17 10:12:05;;;;;;;3.30;1.70;;;22.80;49.10;;;;;;1484695;94;21219;-31
2020/12/17 10:14:33;;;;;;;2.47;1.47;;;22.80;49.00;;;;;;1482053;94;21304;-34
2020/12/17 10:17:02;;;;;;;3.62;1.92;;;22.80;49.00;;;;;;1484477;94;21212;-35
2020/12/17 10:19:30;;;;;;;2.58;1.98;;;22.90;49.00;;;;;;1466295;95;21189;-32
2020/12/17 10:21:59;;;;;;;3.37;1.75;;;22.90;49.50;;;;;;1485855;93;21165;-31
2020/12/17 10:24:27;;;;;;;2.30;1.80;;;22.90;49.00;;;;;;1467971;94;21267;-36
2020/12/17 10:26:55;;;;;;;5.22;2.00;;;22.90;48.80;;;;;;1486521;94;21311;-37
2020/12/17 10:29:23;;;;;;;4.22;2.02;;;22.90;48.90;;;;;;1483147;94;21229;-31
2020/12/17 10:31:50;;;;;;;2.47;1.45;;;22.90;48.80;;;;;;1485825;94;21216;-30
2020/12/17 10:34:19;;;;;;;3.35;2.05;;;22.90;48.70;;;;;;1484683;94;21415;-36
2020/12/17 10:36:47;;;;;;;2.72;1.50;;;23.00;48.70;;;;;;1483943;94;21433;-34
2020/12/17 10:39:15;;;;;;;3.30;1.70;;;23.00;48.60;;;;;;1464797;95;21203;-34
2020/12/17 10:41:43;;;;;;;2.87;1.57;;;23.00;48.50;;;;;;1470115;94;21220;-37
2020/12/17 10:44:11;;;;;;;2.37;1.60;;;23.00;48.90;;;;;;1483351;94;21215;-33
2020/12/17 10:46:39;;;;;;;4.00;1.82;;;23.00;48.40;;;;;;1468355;95;21228;-39
2020/12/17 10:49:09;;;;;;;2.17;1.42;;;23.10;48.50;;;;;;1467454;94;21232;-32
2020/12/17 10:51:37;;;;;;;6.42;1.50;;;23.00;48.40;;;;;;1485448;94;21742;-38
2020/12/17 10:54:05;;;;;;;2.50;1.65;;;23.10;48.50;;;;;;1467659;95;21290;-34
2020/12/17 10:56:33;;;;;;;5.50;1.32;;;23.10;48.30;;;;;;1485477;94;22866;-31
2020/12/17 10:59:00;;;;;;;4.03;1.70;;;23.10;48.40;;;;;;1466237;94;21381;-35
2020/12/17 11:01:28;;;;;;;2.33;1.57;;;23.10;48.30;;;;;;1466225;95;21676;-37
2020/12/17 11:03:56;;;;;;;2.87;1.55;;;23.00;48.30;;;;;;1483612;94;21582;-32
2020/12/17 11:06:24;;;;;;;2.02;1.72;;;23.10;48.30;;;;;;1451374;94;21323;-35
2020/12/17 11:08:51;;;;;;;3.05;1.52;;;23.10;48.10;;;;;;1484419;94;21292;-33
2020/12/17 11:11:19;;;;;;;2.62;1.50;;;23.10;48.30;;;;;;1484897;94;21301;-32
2020/12/17 11:13:47;;;;;;;2.85;1.70;;;23.10;48.40;;;;;;1451308;94;21825;-33
2020/12/17 11:16:14;;;;;;;4.17;1.82;;;23.00;48.40;;;;;;1484801;94;21316;-34
2020/12/17 11:18:42;;;;;;;4.60;1.50;;;23.00;48.40;;;;;;1467618;94;21736;-36
2020/12/17 11:21:10;;;;;;;4.00;1.98;;;23.00;48.70;;;;;;1467708;95;21220;-32
2020/12/17 11:23:39;;;;;;;6.75;2.00;;;23.00;48.70;;;;;;1482983;94;21300;-34
2020/12/17 11:26:07;;;;;;;3.05;1.85;;;23.10;48.80;;;;;;1468943;95;21267;-33
2020/12/17 11:28:34;;;;;;;4.85;1.72;;;23.00;49.00;;;;;;1483192;94;21181;-33
2020/12/17 11:31:02;;;;;;;7.37;2.00;;;23.00;49.50;;;;;;1468236;95;21208;-29
2020/12/17 11:33:30;;;;;;;6.50;1.82;;;23.00;49.10;;;;;;1451814;95;21263;-36
2020/12/17 11:35:58;;;;;;;2.58;1.82;;;23.10;49.20;;;;;;1484741;94;21201;-35
2020/12/17 11:38:25;;;;;;;3.75;1.70;;;23.10;49.00;;;;;;1484449;94;21366;-30
2020/12/17 11:40:54;;;;;;;3.35;1.60;;;23.10;49.00;;;;;;1467729;95;21319;-30
2020/12/17 11:43:21;;;;;;;31.97;2.80;;;23.10;49.20;;;;;;1484287;94;21212;-31
2020/12/17 11:45:49;;;;;;;2.77;1.90;;;23.10;50.00;;;;;;1451550;95;21695;-31
2020/12/17 11:48:17;;;;;;;4.47;1.72;;;23.10;49.40;;;;;;1482830;94;21503;-33
2020/12/17 11:50:45;;;;;;;4.53;1.90;;;23.10;49.40;;;;;;1485094;94;21778;-33
2020/12/17 11:53:14;;;;;;;7.35;2.17;;;23.10;49.50;;;;;;1467894;94;21506;-33
2020/12/17 11:55:42;;;;;;;2.85;1.80;;;23.10;50.30;;;;;;1484619;94;21778;-30
2020/12/17 11:58:09;;;;;;;5.37;1.60;;;23.10;49.10;;;;;;1466768;95;21222;-33
2020/12/17 12:00:37;;;;;;;4.08;1.62;;;23.10;49.40;;;;;;1484189;94;21212;-35
2020/12/17 12:03:05;;;;;;;3.33;1.57;;;23.10;49.30;;;;;;1482709;94;21696;-39
2020/12/17 12:05:33;;;;;;;2.37;1.82;;;23.10;49.50;;;;;;1469140;94;21698;-35
2020/12/17 12:08:00;;;;;;;7.25;1.60;;;23.10;49.20;;;;;;1483823;94;21293;-33
2020/12/17 12:10:28;;;;;;;3.22;1.70;;;23.10;49.20;;;;;;1483270;94;21265;-32
2020/12/17 12:12:56;;;;;;;3.45;1.47;;;23.10;49.40;;;;;;1459399;94;21266;-30
2020/12/17 12:15:23;;;;;;;6.53;2.20;;;23.10;49.00;;;;;;1483277;94;21247;-35
2020/12/17 12:17:52;;;;;;;4.85;2.10;;;23.10;49.00;;;;;;1485354;94;21204;-31
2020/12/17 12:20:20;;;;;;;4.97;2.00;;;23.00;49.30;;;;;;1483131;94;21834;-33
2020/12/17 12:22:48;;;;;;;3.92;1.72;;;23.00;49.40;;;;;;1483221;94;21220;-31
2020/12/17 12:25:16;;;;;;;6.60;2.33;;;23.00;50.00;;;;;;1453385;94;21224;-31
2020/12/17 12:27:45;;;;;;;5.35;2.02;;;23.00;49.70;;;;;;1482746;94;22360;-32
2020/12/17 12:30:13;;;;;;;5.78;1.92;;;23.00;49.60;;;;;;1464236;94;22424;-34
2020/12/17 12:32:40;;;;;;;4.30;1.60;;;23.00;49.50;;;;;;1483302;94;21246;-30
2020/12/17 12:35:08;;;;;;;5.62;2.15;;;23.00;49.70;;;;;;1483029;93;21286;-33
2020/12/17 12:37:36;;;;;;;6.10;2.15;;;23.00;49.90;;;;;;1450252;94;21184;-32
2020/12/17 12:40:04;;;;;;;10.03;2.65;;;22.90;49.90;;;;;;1483551;94;21787;-32
2020/12/17 12:42:31;;;;;;;4.47;2.22;;;22.90;50.00;;;;;;1484665;94;22753;-33
2020/12/17 12:44:59;;;;;;;12.73;2.00;;;22.90;50.00;;;;;;1466624;94;21310;-33
2020/12/17 12:47:27;;;;;;;6.50;2.70;;;22.90;50.20;;;;;;1483792;94;21232;-36
2020/12/17 12:49:54;;;;;;;7.37;2.37;;;22.90;50.20;;;;;;1450287;94;21350;-31
2020/12/17 12:52:22;;;;;;;8.45;1.80;;;23.00;50.00;;;;;;1483655;94;21239;-28
2020/12/17 12:54:50;;;;;;;6.17;2.52;;;23.00;49.80;;;;;;1482246;94;21216;-33
2020/12/17 12:57:18;;;;;;;3.60;1.80;;;23.00;49.80;;;;;;1468443;95;21185;-32